Time;durP1;ratioP1;P1;durP2;ratioP2;P2;SDS_P1;SDS_P2;PMS_P1;PMS_P2;Temp;Humidity;BMP_temperature;BMP_pressure;BME280_temperature;BME280_humidity;BME280_pressure;Samples;Min_cycle;Max_cycle;Signal;HPM_P1;HPM_P2
2021/09/09 00:02:02;;;;;;;22.10;13.77;;;13.10;90.10;;;;;;5093043;28;20077;-87
2021/09/09 00:04:28;;;;;;;23.17;13.82;;;13.10;90.20;;;;;;5093684;28;20478;-87
2021/09/09 00:06:54;;;;;;;22.80;14.20;;;13.00;90.30;;;;;;5093325;28;20028;-87
2021/09/09 00:09:20;;;;;;;30.17;14.10;;;13.00;90.40;;;;;;5093110;28;20024;-86
2021/09/09 00:11:46;;;;;;;28.25;14.95;;;13.00;90.40;;;;;;5092835;28;20035;-86
2021/09/09 00:14:12;;;;;;;26.73;14.00;;;13.00;90.40;;;;;;5094682;28;20024;-86
2021/09/09 00:16:38;;;;;;;26.58;13.82;;;13.00;90.40;;;;;;5093167;28;20020;-87
2021/09/09 00:19:04;;;;;;;25.92;13.70;;;13.00;90.40;;;;;;5076476;28;20390;-88
2021/09/09 00:21:30;;;;;;;27.17;14.02;;;13.00;90.50;;;;;;5089726;28;20029;-85
2021/09/09 00:23:56;;;;;;;25.33;14.43;;;12.90;90.50;;;;;;5089711;28;20136;-86
2021/09/09 00:26:22;;;;;;;22.92;13.73;;;12.90;90.60;;;;;;5092507;28;20486;-86
2021/09/09 00:28:48;;;;;;;28.40;14.07;;;12.90;90.70;;;;;;5094477;28;20024;-86
2021/09/09 00:31:14;;;;;;;25.45;14.00;;;12.90;90.70;;;;;;5092866;28;20032;-86
2021/09/09 00:33:40;;;;;;;27.27;12.93;;;12.80;90.70;;;;;;5092791;28;20024;-86
2021/09/09 00:36:05;;;;;;;22.33;13.27;;;12.90;90.90;;;;;;5094380;28;20531;-87
2021/09/09 00:38:31;;;;;;;23.55;13.23;;;12.90;90.90;;;;;;5092663;28;20024;-87
2021/09/09 00:40:57;;;;;;;25.30;13.82;;;12.80;91.00;;;;;;5092772;28;20020;-87
2021/09/09 00:43:22;;;;;;;22.85;14.13;;;12.80;91.10;;;;;;5093988;28;20525;-86
2021/09/09 00:45:53;;;;;;;24.92;14.52;;;12.80;91.20;;;;;;5093282;28;20501;-86
2021/09/09 00:48:19;;;;;;;24.92;14.10;;;12.80;91.10;;;;;;5092750;28;20036;-86
2021/09/09 00:50:46;;;;;;;22.80;13.82;;;12.70;91.20;;;;;;5094023;28;20041;-87
2021/09/09 00:53:12;;;;;;;25.10;14.38;;;12.80;91.40;;;;;;5092517;28;20040;-87
2021/09/09 00:55:38;;;;;;;23.15;13.15;;;12.70;91.40;;;;;;5093992;28;20390;-87
2021/09/09 00:58:04;;;;;;;23.17;13.77;;;12.70;91.70;;;;;;5092359;28;20032;-87
2021/09/09 01:00:30;;;;;;;24.27;13.40;;;12.70;91.60;;;;;;5093965;28;20026;-86
2021/09/09 01:02:55;;;;;;;24.02;13.02;;;12.60;91.70;;;;;;5092473;28;20030;-87
2021/09/09 01:05:21;;;;;;;25.98;13.85;;;12.60;91.90;;;;;;5092403;28;20020;-87
2021/09/09 01:07:47;;;;;;;23.17;13.48;;;12.60;92.00;;;;;;5092750;28;20024;-87
2021/09/09 01:10:13;;;;;;;25.67;14.38;;;12.60;92.10;;;;;;5092592;28;20031;-87
2021/09/09 01:12:39;;;;;;;24.83;13.82;;;12.60;92.20;;;;;;5092599;28;20024;-87
2021/09/09 01:15:06;;;;;;;22.67;13.20;;;12.60;92.20;;;;;;5098233;28;20024;-87
2021/09/09 01:17:32;;;;;;;21.83;13.43;;;12.50;92.20;;;;;;5097542;28;20024;-87
2021/09/09 01:19:57;;;;;;;23.77;13.20;;;12.50;92.30;;;;;;5097837;28;20095;-87
2021/09/09 01:22:23;;;;;;;22.80;13.48;;;12.50;92.30;;;;;;5096643;28;20115;-87
2021/09/09 01:24:49;;;;;;;23.75;12.55;;;12.50;92.40;;;;;;5098064;28;20485;-87
2021/09/09 01:27:17;;;;;;;24.45;13.77;;;12.50;92.60;;;;;;5096443;28;20077;-88
2021/09/09 01:29:44;;;;;;;25.80;13.13;;;12.50;92.60;;;;;;5097978;28;20074;-87
2021/09/09 01:32:11;;;;;;;26.15;13.95;;;12.50;92.70;;;;;;5096532;28;20024;-87
2021/09/09 01:34:37;;;;;;;23.83;13.68;;;12.40;92.80;;;;;;5097513;28;20024;-87
2021/09/09 01:37:04;;;;;;;24.20;13.50;;;12.40;92.90;;;;;;5096326;28;20525;-88
2021/09/09 01:39:31;;;;;;;23.63;14.32;;;12.40;92.90;;;;;;5096585;28;20024;-88
2021/09/09 01:41:58;;;;;;;25.23;14.68;;;12.30;92.90;;;;;;5096484;28;20164;-88
2021/09/09 01:44:24;;;;;;;24.02;14.23;;;12.30;93.00;;;;;;5096404;28;20031;-87
2021/09/09 01:46:50;;;;;;;29.05;14.88;;;12.30;93.10;;;;;;5096296;28;20048;-88
2021/09/09 01:49:18;;;;;;;25.65;13.35;;;12.30;93.10;;;;;;5096335;28;20028;-87
2021/09/09 01:51:44;;;;;;;24.20;13.82;;;12.20;93.30;;;;;;5095732;28;20117;-88
2021/09/09 01:54:10;;;;;;;21.95;13.55;;;12.20;93.40;;;;;;5095996;28;20359;-88
2021/09/09 01:56:36;;;;;;;24.67;14.93;;;12.20;93.50;;;;;;5095956;28;20031;-88
2021/09/09 01:59:02;;;;;;;22.50;14.00;;;12.10;93.60;;;;;;5096026;28;20016;-87
2021/09/09 02:01:28;;;;;;;24.30;14.65;;;12.10;93.80;;;;;;5096100;28;20024;-88
2021/09/09 02:03:53;;;;;;;22.95;13.50;;;12.10;93.90;;;;;;5096031;28;20371;-88
2021/09/09 02:06:19;;;;;;;27.30;14.40;;;12.10;94.00;;;;;;5095980;28;20028;-88
2021/09/09 02:08:45;;;;;;;27.05;13.85;;;12.00;94.10;;;;;;5095630;28;20363;-88
2021/09/09 02:11:11;;;;;;;24.83;14.40;;;12.00;94.20;;;;;;5095482;28;20058;-87
2021/09/09 02:13:38;;;;;;;23.75;13.82;;;12.00;94.30;;;;;;5095842;28;20056;-88
2021/09/09 02:16:05;;;;;;;27.00;15.50;;;12.00;94.50;;;;;;5095863;28;20390;-88
2021/09/09 02:18:31;;;;;;;25.13;13.90;;;12.00;94.60;;;;;;5095600;28;20047;-88
2021/09/09 02:20:58;;;;;;;23.48;14.50;;;12.00;94.70;;;;;;5095685;28;20027;-88
2021/09/09 02:23:23;;;;;;;25.25;13.75;;;12.00;94.80;;;;;;5095105;28;20055;-88
2021/09/09 02:25:49;;;;;;;26.65;14.32;;;11.90;94.90;;;;;;5095143;28;20105;-88
2021/09/09 02:28:15;;;;;;;28.48;15.35;;;11.90;94.90;;;;;;5095549;28;20024;-88
2021/09/09 02:30:42;;;;;;;25.35;14.70;;;11.90;95.00;;;;;;5095188;28;20527;-88
2021/09/09 02:33:08;;;;;;;28.48;15.43;;;11.90;95.10;;;;;;5095668;28;20081;-88
2021/09/09 02:35:33;;;;;;;23.85;14.10;;;11.90;95.20;;;;;;5096699;28;20028;-88
2021/09/09 02:37:59;;;;;;;21.70;13.73;;;11.90;95.30;;;;;;5095460;28;20031;-89
2021/09/09 02:40:25;;;;;;;29.35;14.23;;;11.80;95.30;;;;;;5095083;28;20114;-88
2021/09/09 02:42:51;;;;;;;26.00;14.43;;;11.80;95.40;;;;;;5095514;28;20067;-88
2021/09/09 02:45:16;;;;;;;28.65;14.43;;;11.80;95.50;;;;;;5094733;28;20024;-88
2021/09/09 02:47:42;;;;;;;24.08;13.90;;;11.90;95.50;;;;;;5096078;28;20028;-88
2021/09/09 02:50:08;;;;;;;23.27;13.40;;;11.80;95.50;;;;;;5095223;28;20020;-89
2021/09/09 02:52:34;;;;;;;25.17;14.65;;;11.80;95.50;;;;;;5094552;28;20115;-88
2021/09/09 02:55:00;;;;;;;25.88;13.48;;;11.80;95.50;;;;;;5094760;28;20043;-88
2021/09/09 02:57:26;;;;;;;25.40;13.95;;;11.80;95.50;;;;;;5094233;28;20107;-87
2021/09/09 02:59:52;;;;;;;23.92;14.75;;;11.70;95.50;;;;;;5095906;28;20051;-87
2021/09/09 03:02:18;;;;;;;26.85;14.50;;;11.70;95.60;;;;;;5095632;28;20063;-87
2021/09/09 03:04:43;;;;;;;26.48;14.80;;;11.70;95.60;;;;;;5094788;28;20039;-87
2021/09/09 03:07:09;;;;;;;28.33;15.20;;;11.70;95.60;;;;;;5094672;28;20028;-87
2021/09/09 03:09:35;;;;;;;24.83;14.38;;;11.70;95.60;;;;;;5094585;28;20028;-88
2021/09/09 03:12:01;;;;;;;22.55;13.13;;;11.70;95.60;;;;;;5094192;28;20024;-88
2021/09/09 03:14:27;;;;;;;25.38;14.60;;;11.70;95.70;;;;;;5094640;28;20074;-88
2021/09/09 03:16:53;;;;;;;24.80;14.30;;;11.70;95.70;;;;;;5094402;28;20024;-88
2021/09/09 03:19:18;;;;;;;24.08;13.63;;;11.70;95.70;;;;;;5091594;28;20044;-88
2021/09/09 03:21:44;;;;;;;25.38;15.45;;;11.60;95.70;;;;;;5075375;28;20024;-88
2021/09/09 03:24:10;;;;;;;26.05;14.82;;;11.60;95.80;;;;;;5075245;28;20033;-89
2021/09/09 03:26:37;;;;;;;24.92;15.07;;;11.60;95.80;;;;;;5075244;28;20056;-88
2021/09/09 03:29:03;;;;;;;28.17;16.15;;;11.60;95.90;;;;;;5073832;28;20120;-88
2021/09/09 03:31:29;;;;;;;26.75;15.68;;;11.60;96.00;;;;;;5073773;28;20025;-87
2021/09/09 03:33:57;;;;;;;25.25;15.70;;;11.60;96.00;;;;;;5073730;28;20405;-88
2021/09/09 03:36:23;;;;;;;26.00;16.23;;;11.60;96.10;;;;;;5074098;28;20032;-87
2021/09/09 03:38:49;;;;;;;25.15;15.70;;;11.60;96.20;;;;;;5077525;28;20028;-87
2021/09/09 03:41:14;;;;;;;26.45;15.82;;;11.60;96.30;;;;;;5093823;28;20024;-88
2021/09/09 03:43:40;;;;;;;27.00;15.50;;;11.60;96.40;;;;;;5093820;28;20024;-87
2021/09/09 03:46:06;;;;;;;24.05;15.45;;;11.70;96.50;;;;;;5093736;28;20436;-88
2021/09/09 16:44:19;;;;;;;38.67;22.27;;;17.50;92.50;;;;;;5070957;28;20854;-77
2021/09/09 16:46:45;;;;;;;31.20;16.33;;;16.90;93.50;;;;;;5070957;28;20054;-77
2021/09/09 16:49:11;;;;;;;43.60;26.67;;;16.80;94.80;;;;;;5070781;28;20025;-77
2021/09/09 16:51:36;;;;;;;72.10;46.10;;;16.80;95.80;;;;;;5070761;28;20021;-77
2021/09/09 16:54:02;;;;;;;88.93;54.15;;;16.80;96.60;;;;;;5069414;28;20052;-77
2021/09/09 16:56:28;;;;;;;105.30;64.68;;;16.90;97.20;;;;;;5070569;28;20031;-77
2021/09/09 16:58:58;;;;;;;64.63;43.17;;;16.90;97.70;;;;;;5069322;28;20028;-77
2021/09/09 17:01:25;;;;;;;38.15;23.67;;;16.90;97.90;;;;;;5070540;28;20078;-77
2021/09/09 17:03:56;;;;;;;28.73;16.58;;;16.90;98.00;;;;;;5070381;28;20483;-77
2021/09/09 17:06:22;;;;;;;27.73;17.00;;;17.00;98.10;;;;;;5069243;28;20021;-77
2021/09/09 17:08:48;;;;;;;70.63;45.88;;;17.00;98.30;;;;;;5070308;28;20025;-77
2021/09/09 17:11:14;;;;;;;28.52;18.85;;;17.00;98.40;;;;;;5070302;28;20120;-77
2021/09/09 17:13:39;;;;;;;33.33;20.05;;;17.00;98.40;;;;;;5070351;28;20031;-77
2021/09/09 17:16:05;;;;;;;29.05;17.42;;;17.00;98.30;;;;;;5070329;28;20025;-77
2021/09/09 17:18:31;;;;;;;33.55;16.92;;;17.00;98.30;;;;;;5068899;28;20047;-77
2021/09/09 17:20:57;;;;;;;27.08;16.80;;;17.00;98.40;;;;;;5070267;28;20104;-77
2021/09/09 17:23:23;;;;;;;20.88;14.10;;;17.10;98.40;;;;;;5069213;28;20063;-77
2021/09/09 17:25:49;;;;;;;39.28;24.23;;;17.00;98.40;;;;;;5070817;28;20024;-77
2021/09/09 17:28:15;;;;;;;40.20;22.65;;;17.00;98.30;;;;;;5070295;28;20530;-77
2021/09/09 17:30:41;;;;;;;44.88;25.75;;;17.00;98.30;;;;;;5070271;28;20028;-77
2021/09/09 17:33:07;;;;;;;38.63;17.77;;;17.00;98.40;;;;;;5069753;28;20021;-77
2021/09/09 17:35:33;;;;;;;28.80;17.48;;;17.00;98.50;;;;;;5069495;28;20082;-77
2021/09/09 17:37:59;;;;;;;32.00;17.52;;;17.00;98.50;;;;;;5069405;28;20096;-78
2021/09/09 17:40:25;;;;;;;34.80;18.90;;;17.00;98.60;;;;;;5069236;28;20037;-78
2021/09/09 17:42:51;;;;;;;43.05;20.27;;;17.00;98.70;;;;;;5069149;28;20102;-78
2021/09/09 17:45:19;;;;;;;42.83;21.80;;;17.00;98.90;;;;;;5069474;28;20104;-78
2021/09/09 17:47:44;;;;;;;36.78;21.30;;;16.90;98.90;;;;;;5069170;28;20020;-78
2021/09/09 17:50:10;;;;;;;37.67;19.83;;;16.90;99.00;;;;;;5068595;28;20147;-78
2021/09/09 17:52:36;;;;;;;45.40;22.05;;;16.90;99.10;;;;;;5068651;28;20044;-79
2021/09/09 17:55:02;;;;;;;43.72;22.33;;;16.90;99.20;;;;;;5059007;28;20108;-79
2021/09/09 17:57:31;;;;;;;46.38;24.95;;;16.80;99.20;;;;;;5055458;28;20021;-80
2021/09/09 17:59:58;;;;;;;41.75;24.27;;;16.80;99.30;;;;;;5055765;28;20020;-81
2021/09/09 18:02:24;;;;;;;41.88;24.55;;;16.80;99.40;;;;;;5055863;28;20021;-81
2021/09/09 18:04:50;;;;;;;110.35;27.23;;;16.70;99.50;;;;;;5055789;28;20021;-81
2021/09/09 18:07:15;;;;;;;68.70;28.65;;;16.80;99.60;;;;;;5054426;28;20037;-81
2021/09/09 18:09:41;;;;;;;68.95;27.15;;;16.70;99.60;;;;;;5055808;28;20056;-82
2021/09/09 18:12:07;;;;;;;78.22;29.30;;;16.70;99.70;;;;;;5054161;28;20021;-88
2021/09/09 18:14:34;;;;;;;67.38;33.10;;;16.70;99.90;;;;;;5054018;28;20078;-73
2021/09/09 18:17:00;;;;;;;240.13;79.93;;;16.70;99.90;;;;;;5054943;28;20013;-69
2021/09/09 18:19:25;;;;;;;239.38;89.10;;;16.70;99.90;;;;;;5055589;28;20024;-70
2021/09/09 18:21:51;;;;;;;445.25;153.68;;;16.50;99.90;;;;;;5055149;28;20539;-72
2021/09/09 18:24:17;;;;;;;365.48;122.38;;;16.30;99.90;;;;;;5054999;28;20037;-67
2021/09/09 18:26:43;;;;;;;177.23;80.00;;;16.10;99.90;;;;;;5055665;28;20074;-82
2021/09/09 18:29:08;;;;;;;130.10;60.85;;;15.80;99.90;;;;;;5054395;28;20036;-83
2021/09/09 18:31:34;;;;;;;88.47;50.15;;;15.70;99.90;;;;;;5055259;28;20025;-77
2021/09/09 18:33:59;;;;;;;85.57;49.28;;;15.60;99.90;;;;;;5055557;28;20025;-76
2021/09/09 18:36:25;;;;;;;153.07;94.15;;;15.60;99.90;;;;;;5055087;28;20545;-76
2021/09/09 18:38:51;;;;;;;98.35;61.42;;;15.50;99.90;;;;;;5055428;28;20033;-76
2021/09/09 18:41:21;;;;;;;114.40;70.05;;;15.50;99.90;;;;;;5055007;28;20024;-75
2021/09/09 18:43:46;;;;;;;104.47;64.85;;;15.50;99.90;;;;;;5053572;28;20128;-76
2021/09/09 18:46:12;;;;;;;100.15;63.40;;;15.40;99.90;;;;;;5053831;28;20112;-76
2021/09/09 18:48:38;;;;;;;109.90;68.82;;;15.40;99.90;;;;;;5055217;28;20460;-76
2021/09/09 18:51:05;;;;;;;122.70;77.88;;;15.40;99.90;;;;;;5055150;28;20043;-76
2021/09/09 18:53:30;;;;;;;121.70;77.00;;;15.40;99.90;;;;;;5055131;28;20411;-74
2021/09/09 18:55:56;;;;;;;119.07;76.50;;;15.40;99.90;;;;;;5054728;28;20029;-75
2021/09/09 18:58:23;;;;;;;122.13;78.13;;;15.40;99.90;;;;;;5053113;28;20033;-74
2021/09/09 19:00:49;;;;;;;139.63;86.18;;;15.30;99.90;;;;;;5053905;28;20024;-75
2021/09/09 19:03:14;;;;;;;142.75;89.53;;;15.30;99.90;;;;;;5053229;28;20020;-74
2021/09/09 19:05:40;;;;;;;140.85;89.50;;;15.30;99.90;;;;;;5053343;28;20033;-76
2021/09/09 19:08:07;;;;;;;151.15;94.95;;;15.30;99.90;;;;;;5053259;28;20053;-73
2021/09/09 19:10:36;;;;;;;149.93;92.35;;;15.30;99.90;;;;;;5052506;28;20021;-76
2021/09/09 19:13:02;;;;;;;146.10;90.10;;;15.30;99.90;;;;;;5056567;28;20104;-76
2021/09/09 19:15:27;;;;;;;144.43;88.72;;;15.30;99.90;;;;;;5056652;28;20442;-75
2021/09/09 19:17:53;;;;;;;159.13;96.88;;;15.20;99.90;;;;;;5052093;28;20033;-74
2021/09/09 19:20:19;;;;;;;145.25;88.38;;;15.20;99.90;;;;;;5054198;28;20486;-73
2021/09/09 19:22:44;;;;;;;146.40;87.55;;;15.20;99.90;;;;;;5053706;28;20066;-74
2021/09/09 19:25:11;;;;;;;137.15;82.55;;;15.20;99.90;;;;;;5053827;28;20033;-75
2021/09/09 19:27:37;;;;;;;134.32;84.15;;;15.10;99.90;;;;;;5053940;28;20028;-74
2021/09/09 19:30:04;;;;;;;133.10;84.80;;;15.10;99.90;;;;;;5053836;28;20017;-75
2021/09/09 19:32:30;;;;;;;136.77;82.22;;;15.10;99.90;;;;;;5053030;28;20039;-74
2021/09/09 19:34:57;;;;;;;133.90;79.13;;;15.10;99.90;;;;;;5053656;28;20078;-74
2021/09/09 19:37:29;;;;;;;131.32;78.80;;;15.10;99.90;;;;;;5053832;28;20064;-74
2021/09/09 19:39:56;;;;;;;135.30;80.57;;;15.00;99.90;;;;;;5053481;28;20017;-74
2021/09/09 19:42:22;;;;;;;130.18;78.00;;;15.00;99.90;;;;;;5053411;28;20090;-74
2021/09/09 19:44:50;;;;;;;121.18;73.00;;;15.00;99.90;;;;;;5052404;28;20032;-74
2021/09/09 19:47:16;;;;;;;113.88;68.82;;;15.00;99.90;;;;;;5053466;28;20070;-74
2021/09/09 19:49:41;;;;;;;116.63;69.20;;;14.90;99.90;;;;;;5053542;28;20463;-76
2021/09/09 19:52:07;;;;;;;113.18;67.53;;;14.90;99.90;;;;;;5053384;28;20025;-74
2021/09/09 19:54:33;;;;;;;106.30;64.82;;;14.90;99.90;;;;;;5052611;28;20053;-76
2021/09/09 19:56:59;;;;;;;100.78;62.05;;;14.90;99.90;;;;;;5052681;28;20530;-76
2021/09/09 19:59:24;;;;;;;107.03;58.58;;;14.90;99.90;;;;;;5053197;28;20059;-76
2021/09/09 20:01:50;;;;;;;97.22;57.75;;;14.80;99.90;;;;;;5053314;28;20025;-76
2021/09/09 20:04:15;;;;;;;93.35;56.38;;;14.80;99.90;;;;;;5053225;28;20025;-76
2021/09/09 20:06:41;;;;;;;87.18;52.92;;;14.80;99.90;;;;;;5053340;28;20418;-76
2021/09/09 20:09:07;;;;;;;86.05;51.25;;;14.80;99.90;;;;;;5053112;28;20075;-76
2021/09/09 20:11:33;;;;;;;87.13;51.58;;;14.70;99.90;;;;;;5053403;28;20067;-76
2021/09/09 20:13:58;;;;;;;86.53;50.75;;;14.70;99.90;;;;;;5053186;28;20387;-74
2021/09/09 20:16:24;;;;;;;88.55;50.42;;;14.70;99.90;;;;;;5053000;28;20475;-74
2021/09/09 20:18:53;;;;;;;89.50;50.63;;;14.70;99.90;;;;;;5052918;28;20025;-74
2021/09/09 20:21:19;;;;;;;91.07;51.55;;;14.60;99.90;;;;;;5053448;28;20103;-77
2021/09/09 20:23:45;;;;;;;87.75;50.38;;;14.60;99.90;;;;;;5053188;28;20082;-74
2021/09/09 20:26:11;;;;;;;88.65;53.15;;;14.60;99.90;;;;;;5052955;28;20455;-76
2021/09/09 20:28:37;;;;;;;93.32;56.22;;;14.60;99.90;;;;;;5052113;28;20375;-74
2021/09/09 20:31:03;;;;;;;101.15;59.85;;;14.60;99.90;;;;;;5051971;28;20029;-76
2021/09/09 20:33:29;;;;;;;96.40;54.80;;;14.50;99.90;;;;;;5053230;28;20033;-75
2021/09/09 20:35:54;;;;;;;89.97;53.60;;;14.50;99.90;;;;;;5053126;28;20032;-75
2021/09/09 20:38:20;;;;;;;98.32;55.42;;;14.50;99.90;;;;;;5052928;28;20395;-76
2021/09/09 20:40:46;;;;;;;86.68;54.25;;;14.50;99.90;;;;;;5052712;28;20360;-76
2021/09/09 20:43:14;;;;;;;86.38;52.75;;;14.40;99.90;;;;;;5052927;28;20495;-74
2021/09/09 20:45:42;;;;;;;96.10;53.30;;;14.40;99.90;;;;;;5053096;28;20506;-74
2021/09/09 20:48:08;;;;;;;95.07;54.33;;;14.40;99.90;;;;;;5049406;28;20055;-74
2021/09/09 20:50:33;;;;;;;91.35;51.97;;;14.40;99.90;;;;;;5051936;28;20028;-74
2021/09/09 20:52:59;;;;;;;92.50;55.17;;;14.30;99.90;;;;;;5051601;28;20379;-74
2021/09/09 20:55:25;;;;;;;90.15;54.80;;;14.30;99.90;;;;;;5053293;28;20036;-74
2021/09/09 20:57:50;;;;;;;95.20;55.42;;;14.30;99.90;;;;;;5053212;28;20024;-74
2021/09/09 21:00:16;;;;;;;89.28;53.15;;;14.30;99.90;;;;;;5053265;28;20367;-74
2021/09/09 21:02:42;;;;;;;91.10;54.67;;;14.30;99.90;;;;;;5053040;28;20418;-74
2021/09/09 21:05:08;;;;;;;92.18;53.53;;;14.20;99.90;;;;;;5053129;28;20033;-74
2021/09/09 21:07:34;;;;;;;108.78;63.80;;;14.20;99.90;;;;;;5051473;28;20374;-74
2021/09/09 21:10:00;;;;;;;94.20;57.15;;;14.20;99.90;;;;;;5052875;28;20096;-74
2021/09/09 21:12:25;;;;;;;86.97;51.58;;;14.20;99.90;;;;;;5052838;28;20057;-74
2021/09/09 21:14:54;;;;;;;89.55;53.90;;;14.10;99.90;;;;;;5053154;28;20541;-74
2021/09/09 21:17:20;;;;;;;92.47;53.45;;;14.10;99.90;;;;;;5052943;28;20112;-74
2021/09/09 21:19:46;;;;;;;92.57;53.60;;;14.10;99.90;;;;;;5050225;28;20095;-74
2021/09/09 21:22:11;;;;;;;93.50;52.95;;;14.10;99.90;;;;;;5053113;28;20536;-74
2021/09/09 21:24:37;;;;;;;94.68;53.72;;;14.10;99.90;;;;;;5052761;28;20045;-74
2021/09/09 21:27:03;;;;;;;95.50;57.08;;;14.00;99.90;;;;;;5052635;28;20042;-74
2021/09/09 21:29:28;;;;;;;93.97;53.90;;;14.00;99.90;;;;;;5053492;28;20045;-74
2021/09/09 21:31:54;;;;;;;89.95;52.97;;;14.00;99.90;;;;;;5056611;28;20108;-74
2021/09/09 21:34:20;;;;;;;93.80;55.97;;;14.00;99.90;;;;;;5056593;28;20463;-74
2021/09/09 21:36:46;;;;;;;93.80;54.13;;;13.90;99.90;;;;;;5056493;28;20013;-73
2021/09/09 21:39:13;;;;;;;93.63;54.88;;;13.80;99.90;;;;;;5056585;28;20028;-73
2021/09/09 21:41:39;;;;;;;92.47;54.55;;;13.90;99.90;;;;;;5056415;28;20017;-73
2021/09/09 21:44:05;;;;;;;99.32;53.97;;;13.80;99.90;;;;;;5055873;28;20060;-74
2021/09/09 21:46:34;;;;;;;105.43;57.22;;;13.80;99.90;;;;;;5055042;28;20043;-73
2021/09/09 21:48:59;;;;;;;96.97;54.90;;;13.80;99.90;;;;;;5055217;28;20023;-73
2021/09/09 21:51:25;;;;;;;99.53;55.72;;;13.80;99.90;;;;;;5056079;28;20088;-74
2021/09/09 21:53:51;;;;;;;100.82;57.83;;;13.70;99.90;;;;;;5056152;28;20029;-73
2021/09/09 21:56:17;;;;;;;97.47;56.80;;;13.70;99.90;;;;;;5056078;28;20029;-74
2021/09/09 21:58:43;;;;;;;93.00;55.45;;;13.70;99.90;;;;;;5056055;28;20116;-74
2021/09/09 22:01:08;;;;;;;92.55;55.88;;;13.70;99.90;;;;;;5056301;28;20020;-74
2021/09/09 22:03:34;;;;;;;97.72;54.22;;;13.70;99.90;;;;;;5056133;28;20029;-73
2021/09/09 22:06:00;;;;;;;93.20;54.95;;;13.70;99.90;;;;;;5055877;28;20021;-74
2021/09/09 22:08:25;;;;;;;105.57;58.40;;;13.60;99.90;;;;;;5055925;28;20025;-74
2021/09/09 22:10:54;;;;;;;99.93;56.75;;;13.60;99.90;;;;;;5056159;28;20085;-74
2021/09/09 22:13:23;;;;;;;94.80;55.85;;;13.60;99.90;;;;;;5055837;28;20078;-74
2021/09/09 22:16:09;;;;;;;95.13;56.50;;;13.60;99.90;;;;;;5053351;28;20021;-74
2021/09/09 22:18:36;;;;;;;102.60;55.60;;;13.50;99.90;;;;;;5052349;28;20090;-74
2021/09/09 22:21:08;;;;;;;92.90;56.22;;;13.60;99.90;;;;;;5054282;28;20058;-74
2021/09/09 22:23:35;;;;;;;102.72;58.88;;;13.50;99.90;;;;;;5055105;28;20025;-74
2021/09/09 22:26:01;;;;;;;103.43;61.15;;;13.50;99.90;;;;;;5055573;28;20081;-74
2021/09/09 22:28:30;;;;;;;105.75;60.80;;;13.50;99.90;;;;;;5055412;28;20090;-74
2021/09/09 22:30:57;;;;;;;108.13;61.65;;;13.40;99.90;;;;;;5055323;28;20025;-74
2021/09/09 22:33:35;;;;;;;110.35;63.50;;;13.40;99.90;;;;;;5054465;28;20033;-74
2021/09/09 22:36:01;;;;;;;110.65;64.97;;;13.40;99.90;;;;;;5055498;28;20037;-74
2021/09/09 22:38:26;;;;;;;108.43;64.35;;;13.30;99.90;;;;;;5051190;28;20028;-74
2021/09/09 22:40:52;;;;;;;112.30;63.92;;;13.30;99.90;;;;;;5055599;28;20024;-74
2021/09/09 22:43:18;;;;;;;114.78;65.28;;;13.30;99.90;;;;;;5054850;28;20047;-74
2021/09/09 22:45:44;;;;;;;116.68;65.57;;;13.30;99.90;;;;;;5053931;28;20021;-74
2021/09/09 22:48:19;;;;;;;124.88;71.13;;;13.30;99.90;;;;;;5055014;28;20052;-74
2021/09/09 22:50:44;;;;;;;128.68;71.43;;;13.20;99.90;;;;;;5053929;28;20098;-74
2021/09/09 22:53:13;;;;;;;122.38;69.50;;;13.20;99.90;;;;;;5054769;28;20144;-74
2021/09/09 22:55:39;;;;;;;124.95;71.20;;;13.20;99.90;;;;;;5054293;28;20361;-74
2021/09/09 22:58:10;;;;;;;122.38;68.35;;;13.20;99.90;;;;;;5054865;28;20074;-74
2021/09/09 23:00:36;;;;;;;124.65;70.80;;;13.10;99.90;;;;;;5053853;28;20025;-74
2021/09/09 23:03:05;;;;;;;123.50;68.90;;;13.10;99.90;;;;;;5054863;28;20498;-74
2021/09/09 23:06:12;;;;;;;112.30;66.97;;;13.10;99.90;;;;;;5054773;28;20468;-74
2021/09/09 23:08:37;;;;;;;117.38;69.15;;;13.10;99.90;;;;;;5046646;28;20517;-74
2021/09/09 23:11:13;;;;;;;120.43;68.03;;;13.10;99.90;;;;;;5054689;28;20092;-74
2021/09/09 23:13:45;;;;;;;121.03;68.45;;;13.00;99.90;;;;;;5053596;28;20040;-74
2021/09/09 23:16:14;;;;;;;106.32;63.72;;;13.00;99.90;;;;;;5041537;28;20033;-74
2021/09/09 23:18:40;;;;;;;126.43;70.43;;;13.00;99.90;;;;;;5053597;28;20371;-74
2021/09/09 23:21:21;;;;;;;115.82;65.82;;;13.00;99.90;;;;;;5054508;28;20028;-74
2021/09/09 23:23:47;;;;;;;117.25;67.75;;;12.90;99.90;;;;;;5052912;28;20074;-74
2021/09/09 23:26:13;;;;;;;126.22;70.28;;;12.90;99.90;;;;;;5054415;28;20455;-74
2021/09/09 23:28:42;;;;;;;121.70;67.35;;;12.90;99.90;;;;;;5053230;28;20032;-74
2021/09/09 23:31:08;;;;;;;119.75;64.65;;;12.90;99.90;;;;;;5047785;28;20033;-75
2021/09/09 23:33:37;;;;;;;113.03;66.68;;;12.90;99.90;;;;;;5054113;28;20387;-74
2021/09/09 23:36:03;;;;;;;106.80;62.58;;;12.90;99.90;;;;;;5052950;28;20033;-74
2021/09/09 23:38:29;;;;;;;116.72;67.95;;;12.80;99.90;;;;;;5052364;28;20029;-74
2021/09/09 23:40:55;;;;;;;116.53;69.10;;;12.90;99.90;;;;;;5053971;28;20558;-74
2021/09/09 23:43:26;;;;;;;118.72;68.15;;;12.80;99.90;;;;;;5053964;28;20410;-74
2021/09/09 23:45:55;;;;;;;116.43;67.93;;;12.80;99.90;;;;;;5052805;28;20107;-74
2021/09/09 23:48:21;;;;;;;122.30;70.95;;;12.80;99.90;;;;;;5053964;28;20033;-74
2021/09/09 23:50:47;;;;;;;109.82;64.15;;;12.70;99.90;;;;;;5050000;28;20021;-74
2021/09/09 23:53:13;;;;;;;110.88;64.70;;;12.80;99.90;;;;;;5052416;28;20079;-74
2021/09/09 23:55:48;;;;;;;108.38;63.60;;;12.70;99.90;;;;;;5053778;28;20032;-74
2021/09/09 23:58:14;;;;;;;117.63;67.95;;;12.70;99.90;;;;;;5052241;28;20083;-74
